createdAt,value
2023-01-11T00:00:00.397Z,2.00
2023-01-11T00:01:01.984Z,1.80
2023-01-11T00:02:03.363Z,1.57
2023-01-11T00:03:06.125Z,1.90
2023-01-11T00:04:07.592Z,2.27
2023-01-11T00:05:09.580Z,1.70
2023-01-11T00:06:11.819Z,1.50
2023-01-11T00:07:13.508Z,1.80
2023-01-11T00:08:14.931Z,1.70
2023-01-11T00:09:17.108Z,2.00
2023-01-11T00:10:19.853Z,1.67
2023-01-11T00:11:21.523Z,1.53
2023-01-11T00:12:23.317Z,1.57
2023-01-11T00:13:24.716Z,1.73
2023-01-11T00:14:26.285Z,1.90
2023-01-11T00:15:27.840Z,1.97
2023-01-11T00:16:29.349Z,2.03
2023-01-11T00:17:30.790Z,1.77
2023-01-11T00:18:32.205Z,1.60
2023-01-11T00:19:33.658Z,1.50
2023-01-11T00:20:35.695Z,1.67
2023-01-11T00:21:37.191Z,1.83
2023-01-11T00:22:38.810Z,1.77
2023-01-11T00:23:40.405Z,1.70
2023-01-11T00:24:41.849Z,1.50
2023-01-11T00:25:43.455Z,1.60
2023-01-11T00:26:44.905Z,1.50
2023-01-11T00:27:49.398Z,1.53
2023-01-11T00:28:52.509Z,1.63
2023-01-11T00:29:54.104Z,1.80
2023-01-11T00:30:55.951Z,1.90
2023-01-11T00:31:57.390Z,1.97
2023-01-11T00:33:00.193Z,1.90
2023-01-11T00:34:01.836Z,2.00
2023-01-11T00:35:03.541Z,1.80
2023-01-11T00:36:05.061Z,1.87
2023-01-11T00:37:06.515Z,1.70
2023-01-11T00:38:08.133Z,1.57
2023-01-11T00:39:09.537Z,1.60
2023-01-11T00:40:11.575Z,1.80
2023-01-11T00:41:34.112Z,1.90
2023-01-11T00:42:54.234Z,1.67
2023-01-11T00:44:14.809Z,1.70
2023-01-11T00:45:34.950Z,1.80
2023-01-11T00:46:55.762Z,1.77
2023-01-11T00:47:57.295Z,1.63
2023-01-11T00:48:58.792Z,1.67
2023-01-11T00:50:00.579Z,1.60
2023-01-11T00:51:02.077Z,1.70
2023-01-11T00:52:08.654Z,1.57
2023-01-11T00:53:10.082Z,1.83
2023-01-11T00:54:11.769Z,1.60
2023-01-11T00:55:13.223Z,1.50
2023-01-11T00:56:14.641Z,1.50
2023-01-11T00:57:16.228Z,1.40
2023-01-11T00:58:17.666Z,1.50
2023-01-11T00:59:20.162Z,1.63
2023-01-11T01:00:22.219Z,1.70
2023-01-11T01:01:23.683Z,1.50
2023-01-11T01:02:25.834Z,1.90
2023-01-11T01:03:28.549Z,1.50
2023-01-11T01:04:30.052Z,1.60
2023-01-11T01:05:31.807Z,1.40
2023-01-11T01:06:33.411Z,1.50
2023-01-11T01:07:34.809Z,1.50
2023-01-11T01:08:36.423Z,1.63
2023-01-11T01:09:37.824Z,1.60
2023-01-11T01:10:39.186Z,1.50
2023-01-11T01:11:40.698Z,1.50
2023-01-11T01:13:01.351Z,1.73
2023-01-11T01:14:21.657Z,1.73
2023-01-11T01:15:23.546Z,1.90
2023-01-11T01:16:25.149Z,1.70
2023-01-11T01:17:26.804Z,1.90
2023-01-11T01:18:28.277Z,1.57
2023-01-11T01:19:31.339Z,1.50
2023-01-11T01:20:34.205Z,1.50
2023-01-11T01:21:35.716Z,2.53
2023-01-11T01:22:37.385Z,2.57
2023-01-11T01:23:38.898Z,1.80
2023-01-11T01:24:40.718Z,1.50
2023-01-11T01:25:42.069Z,1.53
2023-01-11T01:26:43.486Z,1.60
2023-01-11T01:27:45.226Z,1.70
2023-01-11T01:28:46.895Z,1.63
2023-01-11T01:29:48.440Z,1.57
2023-01-11T01:30:53.636Z,1.80
2023-01-11T01:31:55.521Z,1.67
2023-01-11T01:32:56.933Z,1.63
2023-01-11T01:33:58.489Z,1.63
2023-01-11T01:35:00.319Z,1.73
2023-01-11T01:36:02.684Z,1.77
2023-01-11T01:37:05.724Z,1.60
2023-01-11T01:38:07.101Z,1.83
2023-01-11T01:39:10.670Z,1.60
2023-01-11T01:40:12.617Z,1.60
2023-01-11T01:41:14.421Z,1.60
2023-01-11T01:42:19.187Z,1.70
2023-01-11T01:43:20.777Z,1.70
2023-01-11T01:44:56.418Z,1.70
2023-01-11T01:45:57.942Z,1.60
2023-01-11T01:47:02.579Z,1.83
2023-01-11T01:48:06.821Z,1.70
2023-01-11T01:49:16.257Z,1.80
2023-01-11T01:50:53.987Z,1.53
2023-01-11T01:51:57.942Z,1.90
2023-01-11T01:53:04.965Z,1.70
2023-01-11T01:54:10.176Z,1.70
2023-01-11T01:55:15.035Z,1.60
2023-01-11T01:56:25.135Z,1.40
2023-01-11T01:57:30.537Z,1.60
2023-01-11T01:58:40.778Z,1.67
2023-01-11T01:59:42.318Z,1.57
2023-01-11T02:00:46.174Z,1.43
2023-01-11T02:01:49.789Z,1.60
2023-01-11T02:02:51.699Z,1.80
2023-01-11T02:03:54.657Z,1.40
2023-01-11T02:04:58.194Z,1.73
2023-01-11T02:05:59.626Z,1.90
2023-01-11T02:07:11.402Z,1.90
2023-01-11T02:08:27.561Z,1.90
2023-01-11T02:09:59.182Z,2.00
2023-01-11T02:11:01.069Z,1.90
2023-01-11T02:12:04.418Z,1.60
2023-01-11T02:13:09.971Z,1.53
2023-01-11T02:14:16.476Z,1.73
2023-01-11T02:15:21.582Z,1.60
2023-01-11T02:16:23.924Z,2.00
2023-01-11T02:17:25.458Z,1.50
2023-01-11T02:18:27.065Z,1.83
2023-01-11T02:20:05.587Z,1.50
2023-01-11T02:21:07.085Z,1.70
2023-01-11T02:22:31.135Z,2.00
2023-01-11T02:23:50.824Z,1.40
2023-01-11T02:24:58.830Z,1.80
2023-01-11T02:26:36.875Z,1.40
2023-01-11T02:28:17.299Z,2.37
2023-01-11T02:29:27.879Z,1.43
2023-01-11T02:30:50.960Z,1.70
2023-01-11T02:31:55.638Z,1.73
2023-01-11T02:33:08.734Z,1.57
2023-01-11T02:34:29.163Z,1.80
2023-01-11T02:35:36.518Z,1.77
2023-01-11T02:37:00.120Z,1.87
2023-01-11T02:38:06.330Z,1.80
2023-01-11T02:39:27.820Z,1.67
2023-01-11T02:41:13.298Z,1.57
2023-01-11T02:42:45.070Z,1.83
2023-01-11T02:44:16.049Z,1.53
2023-01-11T02:45:35.947Z,1.80
2023-01-11T02:46:40.025Z,1.57
2023-01-11T02:48:04.659Z,1.77
2023-01-11T02:49:26.898Z,1.70
2023-01-11T02:50:33.889Z,1.80
2023-01-11T02:51:55.169Z,1.90
2023-01-11T02:53:08.836Z,1.63
2023-01-11T02:54:12.454Z,1.50
2023-01-11T02:55:17.165Z,1.73
2023-01-11T02:56:29.439Z,1.60
2023-01-11T02:57:33.598Z,1.70
2023-01-11T02:58:38.722Z,1.57
2023-01-11T02:59:40.619Z,1.97
2023-01-11T03:00:44.239Z,1.73
2023-01-11T03:01:55.597Z,1.60
2023-01-11T03:03:08.210Z,1.80
2023-01-11T03:04:23.025Z,1.63
2023-01-11T03:05:25.610Z,1.50
2023-01-11T03:06:34.524Z,1.50
2023-01-11T03:08:10.711Z,1.90
2023-01-11T03:09:45.813Z,1.80
2023-01-11T03:11:07.476Z,1.80
2023-01-11T03:12:48.247Z,1.63
2023-01-11T03:14:20.999Z,1.73
2023-01-11T03:16:19.081Z,1.47
2023-01-11T03:17:50.791Z,1.50
2023-01-11T03:19:02.785Z,1.70
2023-01-11T03:20:24.603Z,1.70
2023-01-11T03:21:37.158Z,1.60
2023-01-11T03:22:41.571Z,1.60
2023-01-11T03:23:51.975Z,1.60
2023-01-11T03:25:05.048Z,1.70
2023-01-11T03:26:31.532Z,1.70
2023-01-11T03:27:47.016Z,1.70
2023-01-11T03:29:11.429Z,1.77
2023-01-11T03:30:35.242Z,1.90
2023-01-11T03:31:55.767Z,1.70
2023-01-11T03:33:09.559Z,1.50
2023-01-11T03:34:46.222Z,1.90
2023-01-11T03:35:53.090Z,1.70
2023-01-11T03:37:17.168Z,1.80
2023-01-11T03:38:30.500Z,1.80
2023-01-11T03:39:44.944Z,1.70
2023-01-11T03:40:56.044Z,1.80
2023-01-11T03:42:00.873Z,1.60
2023-01-11T03:43:12.227Z,1.60
2023-01-11T03:44:15.826Z,1.70
2023-01-11T03:45:17.925Z,1.57
2023-01-11T03:46:24.179Z,1.70
2023-01-11T03:47:28.502Z,1.90
2023-01-11T03:48:32.873Z,1.60
2023-01-11T03:50:05.496Z,1.60
2023-01-11T03:51:10.657Z,1.60
2023-01-11T03:52:16.560Z,2.00
2023-01-11T03:53:21.183Z,1.93
2023-01-11T03:54:26.238Z,2.00
2023-01-11T03:55:30.575Z,1.80
2023-01-11T03:57:03.485Z,1.80
2023-01-11T03:58:05.345Z,1.83
2023-01-11T03:59:06.813Z,1.67
2023-01-11T04:00:09.712Z,1.70
2023-01-11T04:01:12.352Z,2.00
2023-01-11T04:02:16.618Z,1.80
2023-01-11T04:03:18.055Z,2.10
2023-01-11T04:04:19.664Z,1.90
2023-01-11T04:05:21.179Z,2.27
2023-01-11T04:06:23.708Z,1.83
2023-01-11T04:07:25.241Z,1.73
2023-01-11T04:08:27.486Z,1.70
2023-01-11T04:09:28.964Z,1.90
2023-01-11T04:10:30.419Z,1.80
2023-01-11T04:11:31.827Z,2.00
2023-01-11T04:12:33.309Z,1.50
2023-01-11T04:13:34.732Z,1.60
2023-01-11T04:14:36.282Z,1.70
2023-01-11T04:15:37.759Z,1.87
2023-01-11T04:16:39.208Z,1.80
2023-01-11T04:17:41.741Z,2.00
2023-01-11T04:18:43.197Z,1.70
2023-01-11T04:19:44.858Z,1.90
2023-01-11T04:20:47.001Z,1.73
2023-01-11T04:21:48.763Z,1.77
2023-01-11T04:22:50.216Z,1.90
2023-01-11T04:23:52.388Z,1.70
2023-01-11T04:24:54.369Z,1.97
2023-01-11T04:25:55.857Z,2.03
2023-01-11T04:26:57.343Z,2.30
2023-01-11T04:27:59.169Z,2.33
2023-01-11T04:29:00.844Z,2.47
2023-01-11T04:30:02.360Z,2.40
2023-01-11T04:31:03.863Z,2.67
2023-01-11T04:32:05.508Z,2.30
2023-01-11T04:33:07.244Z,2.60
2023-01-11T04:34:08.753Z,2.33
2023-01-11T04:35:10.228Z,2.30
2023-01-11T04:36:12.976Z,2.30
2023-01-11T04:37:14.840Z,2.57
2023-01-11T04:38:16.321Z,2.40
2023-01-11T04:39:17.711Z,2.47
2023-01-11T04:40:19.174Z,2.70
2023-01-11T04:41:39.570Z,2.33
2023-01-11T04:42:40.979Z,2.40
2023-01-11T04:43:42.496Z,2.77
2023-01-11T04:44:44.525Z,2.43
2023-01-11T04:45:45.907Z,2.93
2023-01-11T04:46:47.622Z,2.33
2023-01-11T04:47:55.522Z,2.37
2023-01-11T04:48:56.951Z,2.50
2023-01-11T04:49:58.373Z,2.90
2023-01-11T04:50:59.828Z,2.53
2023-01-11T04:52:01.512Z,2.60
2023-01-11T04:53:02.918Z,2.80
2023-01-11T04:54:04.668Z,2.70
2023-01-11T04:55:06.343Z,2.80
2023-01-11T04:56:08.557Z,2.97
2023-01-11T04:57:15.140Z,2.93
2023-01-11T04:58:16.579Z,2.50
2023-01-11T04:59:18.069Z,2.83
2023-01-11T05:00:19.888Z,2.50
2023-01-11T05:01:21.565Z,2.63
2023-01-11T05:02:23.471Z,3.03
2023-01-11T05:03:25.119Z,3.07
2023-01-11T05:04:26.608Z,3.00
2023-01-11T05:05:28.053Z,3.00
2023-01-11T05:06:29.566Z,2.50
2023-01-11T05:07:31.009Z,2.83
2023-01-11T05:08:32.875Z,2.67
2023-01-11T05:09:34.532Z,2.60
2023-01-11T05:10:35.892Z,3.00
2023-01-11T05:11:37.320Z,2.53
2023-01-11T05:12:39.010Z,2.70
2023-01-11T05:13:43.644Z,2.70
2023-01-11T05:14:45.087Z,2.73
2023-01-11T05:15:46.733Z,2.43
2023-01-11T05:16:48.213Z,2.50
2023-01-11T05:17:49.886Z,2.50
2023-01-11T05:18:59.342Z,2.57
2023-01-11T05:20:00.902Z,2.70
2023-01-11T05:21:02.902Z,2.50
2023-01-11T05:22:04.423Z,2.70
2023-01-11T05:23:05.838Z,2.50
2023-01-11T05:24:11.473Z,2.70
2023-01-11T05:25:12.868Z,2.60
2023-01-11T05:26:23.158Z,2.63
2023-01-11T05:27:24.632Z,2.67
2023-01-11T05:28:26.196Z,2.97
2023-01-11T05:29:28.609Z,2.40
2023-01-11T05:30:30.202Z,2.60
2023-01-11T05:31:32.942Z,2.37
2023-01-11T05:32:34.449Z,2.37
2023-01-11T05:33:36.062Z,2.80
2023-01-11T05:34:37.603Z,3.07
2023-01-11T05:35:38.958Z,2.90
2023-01-11T05:36:41.139Z,2.73
2023-01-11T05:37:42.492Z,2.47
2023-01-11T05:38:46.706Z,2.63
2023-01-11T05:39:48.155Z,3.03
2023-01-11T05:41:03.972Z,2.90
2023-01-11T05:42:05.469Z,3.27
2023-01-11T05:43:07.422Z,2.77
2023-01-11T05:44:30.551Z,2.37
2023-01-11T05:45:33.464Z,3.00
2023-01-11T05:46:36.442Z,2.40
2023-01-11T05:47:38.200Z,2.40
2023-01-11T05:48:39.654Z,2.50
2023-01-11T05:49:41.181Z,2.30
2023-01-11T05:50:42.643Z,2.60
2023-01-11T05:51:44.218Z,2.10
2023-01-11T05:52:45.936Z,2.37
2023-01-11T05:53:47.718Z,2.40
2023-01-11T05:54:49.132Z,2.43
2023-01-11T05:55:58.652Z,2.23
2023-01-11T05:57:00.132Z,2.67
2023-01-11T05:58:01.834Z,2.30
2023-01-11T05:59:04.092Z,2.10
2023-01-11T06:00:06.322Z,2.30
2023-01-11T06:01:08.441Z,2.63
2023-01-11T06:02:10.890Z,2.30
2023-01-11T06:03:12.688Z,2.17
2023-01-11T06:04:14.712Z,2.60
2023-01-11T06:05:16.475Z,2.73
2023-01-11T06:06:19.921Z,2.57
2023-01-11T06:07:24.919Z,2.50
2023-01-11T06:08:26.665Z,2.55
2023-01-11T06:09:28.331Z,2.20
2023-01-11T06:10:29.850Z,2.17
2023-01-11T06:11:31.275Z,2.37
2023-01-11T06:12:32.703Z,2.07
2023-01-11T06:13:34.250Z,2.33
2023-01-11T06:14:37.977Z,2.37
2023-01-11T06:15:40.586Z,2.20
2023-01-11T06:16:42.509Z,2.13
2023-01-11T06:17:44.096Z,2.93
2023-01-11T06:18:48.739Z,2.30
2023-01-11T06:19:50.149Z,2.13
2023-01-11T06:20:53.016Z,2.17
2023-01-11T06:21:54.538Z,2.10
2023-01-11T06:22:55.920Z,2.50
2023-01-11T06:23:57.329Z,2.30
2023-01-11T06:24:58.728Z,2.10
2023-01-11T06:26:12.068Z,2.30
2023-01-11T06:27:13.515Z,2.23
2023-01-11T06:28:15.299Z,2.13
2023-01-11T06:29:16.767Z,2.13
2023-01-11T06:30:20.524Z,2.20
2023-01-11T06:31:22.062Z,2.20
2023-01-11T06:32:23.827Z,2.13
2023-01-11T06:33:27.158Z,2.27
2023-01-11T06:34:28.837Z,2.23
2023-01-11T06:35:30.497Z,2.10
2023-01-11T06:36:32.060Z,1.90
2023-01-11T06:37:33.513Z,2.10
2023-01-11T06:38:35.873Z,2.23
2023-01-11T06:39:37.255Z,2.07
2023-01-11T06:40:39.873Z,2.33
2023-01-11T06:41:41.343Z,2.00
2023-01-11T06:42:43.019Z,1.90
2023-01-11T06:43:45.046Z,2.10
2023-01-11T06:44:46.724Z,2.00
2023-01-11T06:45:48.216Z,2.13
2023-01-11T06:46:49.997Z,2.30
2023-01-11T06:47:51.408Z,2.13
2023-01-11T06:48:52.869Z,2.23
2023-01-11T06:49:54.229Z,2.80
2023-01-11T06:50:57.727Z,1.90
2023-01-11T06:51:59.138Z,1.90
2023-01-11T06:53:02.348Z,2.07
2023-01-11T06:54:03.866Z,1.77
2023-01-11T06:55:05.894Z,2.00
2023-01-11T06:56:13.994Z,2.03
2023-01-11T06:57:15.769Z,1.77
2023-01-11T06:58:17.324Z,2.30
2023-01-11T06:59:18.711Z,2.20
2023-01-11T07:00:20.695Z,2.13
2023-01-11T07:01:22.540Z,2.07
2023-01-11T07:02:24.260Z,1.93
2023-01-11T07:03:26.588Z,2.03
2023-01-11T07:04:28.168Z,2.10
2023-01-11T07:05:29.850Z,2.20
2023-01-11T07:06:34.977Z,2.30
2023-01-11T07:07:37.303Z,2.10
2023-01-11T07:08:39.039Z,2.27
2023-01-11T07:09:40.447Z,2.17
2023-01-11T07:10:43.808Z,2.10
2023-01-11T07:11:45.243Z,2.37
2023-01-11T07:12:46.762Z,2.03
2023-01-11T07:13:48.569Z,2.10
2023-01-11T07:14:49.950Z,2.00
2023-01-11T07:15:54.107Z,2.17
2023-01-11T07:16:55.702Z,2.30
2023-01-11T07:17:58.758Z,1.87
2023-01-11T07:19:00.290Z,2.00
2023-01-11T07:20:02.973Z,1.90
2023-01-11T07:21:04.906Z,2.23
2023-01-11T07:22:06.657Z,2.03
2023-01-11T07:23:08.422Z,2.17
2023-01-11T07:24:10.023Z,2.10
2023-01-11T07:25:11.449Z,2.00
2023-01-11T07:26:14.306Z,2.00
2023-01-11T07:27:15.770Z,2.27
2023-01-11T07:28:17.362Z,2.10
2023-01-11T07:29:18.866Z,2.37
2023-01-11T07:30:20.339Z,2.13
2023-01-11T07:31:21.759Z,2.33
2023-01-11T07:32:23.261Z,2.13
2023-01-11T07:33:25.334Z,2.13
2023-01-11T07:34:26.908Z,2.20
2023-01-11T07:35:29.148Z,2.13
2023-01-11T07:36:31.753Z,2.27
2023-01-11T07:37:34.475Z,2.20
2023-01-11T07:38:36.440Z,2.50
2023-01-11T07:39:43.908Z,2.30
2023-01-11T07:40:45.829Z,2.20
2023-01-11T07:42:05.934Z,2.30
2023-01-11T07:43:12.005Z,2.07
2023-01-11T07:44:13.411Z,2.03
2023-01-11T07:45:14.896Z,2.13
2023-01-11T07:46:16.784Z,2.33
2023-01-11T07:47:18.224Z,2.07
2023-01-11T07:48:25.315Z,2.70
2023-01-11T07:49:27.163Z,2.63
2023-01-11T07:50:28.584Z,2.30
2023-01-11T07:51:30.355Z,2.20
2023-01-11T07:52:31.829Z,2.17
2023-01-11T07:53:33.242Z,2.73
2023-01-11T07:54:34.796Z,2.17
2023-01-11T07:55:36.355Z,2.30
2023-01-11T07:56:37.811Z,2.10
2023-01-11T07:57:39.232Z,1.90
2023-01-11T07:58:40.630Z,2.23
2023-01-11T07:59:42.164Z,2.07
2023-01-11T08:00:44.151Z,1.80
2023-01-11T08:01:45.916Z,2.20
2023-01-11T08:02:51.526Z,2.10
2023-01-11T08:03:53.605Z,1.93
2023-01-11T08:04:55.101Z,1.80
2023-01-11T08:05:56.637Z,2.10
2023-01-11T08:06:58.172Z,1.73
2023-01-11T08:07:59.644Z,1.90
2023-01-11T08:09:01.279Z,1.73
2023-01-11T08:10:03.318Z,1.77
2023-01-11T08:11:23.864Z,1.77
2023-01-11T08:12:44.045Z,2.10
2023-01-11T08:14:04.156Z,2.07
2023-01-11T08:15:06.283Z,1.90
2023-01-11T08:16:07.867Z,1.67
2023-01-11T08:17:14.946Z,1.70
2023-01-11T08:18:17.311Z,1.80
2023-01-11T08:19:18.782Z,1.80
2023-01-11T08:20:21.036Z,1.70
2023-01-11T08:21:22.693Z,1.90
2023-01-11T08:22:24.199Z,1.73
2023-01-11T08:23:27.182Z,2.10
2023-01-11T08:24:28.749Z,1.87
2023-01-11T08:25:30.353Z,1.90
2023-01-11T08:26:32.239Z,2.00
2023-01-11T08:27:33.737Z,1.80
2023-01-11T08:28:35.241Z,1.70
2023-01-11T08:29:37.939Z,2.07
2023-01-11T08:30:40.519Z,1.90
2023-01-11T08:31:45.395Z,1.90
2023-01-11T08:32:46.893Z,1.80
2023-01-11T08:33:51.312Z,1.80
2023-01-11T08:34:52.765Z,2.20
2023-01-11T08:35:54.351Z,2.10
2023-01-11T08:37:02.213Z,1.90
2023-01-11T08:38:03.672Z,1.50
2023-01-11T08:39:05.732Z,1.60
2023-01-11T08:40:07.916Z,1.73
2023-01-11T08:41:12.415Z,1.73
2023-01-11T08:42:13.845Z,1.73
2023-01-11T08:43:15.292Z,2.07
2023-01-11T08:44:22.283Z,1.60
2023-01-11T08:45:34.484Z,1.90
2023-01-11T08:46:37.896Z,1.93
2023-01-11T08:47:39.415Z,1.70
2023-01-11T08:48:40.854Z,2.13
2023-01-11T08:49:43.067Z,1.60
2023-01-11T08:50:45.056Z,1.90
2023-01-11T08:51:46.508Z,2.00
2023-01-11T08:52:48.258Z,1.60
2023-01-11T08:53:52.813Z,1.60
2023-01-11T08:54:54.288Z,1.80
2023-01-11T08:55:55.710Z,1.80
2023-01-11T08:56:57.167Z,1.80
2023-01-11T08:57:58.660Z,2.10
2023-01-11T08:59:02.087Z,2.10
2023-01-11T09:00:07.903Z,1.73
2023-01-11T09:01:10.399Z,1.93
2023-01-11T09:02:13.090Z,1.90
2023-01-11T09:03:15.237Z,2.13
2023-01-11T09:04:24.895Z,1.80
2023-01-11T09:05:27.357Z,2.00
2023-01-11T09:06:28.862Z,1.90
2023-01-11T09:07:30.606Z,2.07
2023-01-11T09:08:32.787Z,2.00
2023-01-11T09:09:34.193Z,2.10
2023-01-11T09:10:37.036Z,2.00
2023-01-11T09:11:58.079Z,1.80
2023-01-11T09:13:00.318Z,1.90
2023-01-11T09:14:01.781Z,1.93
2023-01-11T09:15:05.810Z,1.97
2023-01-11T09:16:07.919Z,2.00
2023-01-11T09:17:09.392Z,2.17
2023-01-11T09:18:11.061Z,2.00
2023-01-11T09:19:12.582Z,1.70
2023-01-11T09:20:14.175Z,2.00
2023-01-11T09:21:15.956Z,1.87
2023-01-11T09:22:18.517Z,1.97
2023-01-11T09:23:20.211Z,2.07
2023-01-11T09:24:21.889Z,1.83
2023-01-11T09:25:23.397Z,1.70
2023-01-11T09:26:24.899Z,2.00
2023-01-11T09:27:26.623Z,2.07
2023-01-11T09:28:28.475Z,2.10
2023-01-11T09:29:30.401Z,2.00
2023-01-11T09:30:32.402Z,2.40
2023-01-11T09:31:33.935Z,2.00
2023-01-11T09:32:35.489Z,2.30
2023-01-11T09:33:38.501Z,2.23
2023-01-11T09:34:41.718Z,1.80
2023-01-11T09:35:45.747Z,1.93
2023-01-11T09:36:49.044Z,2.13
2023-01-11T09:37:52.315Z,1.93
2023-01-11T09:38:57.595Z,1.90
2023-01-11T09:39:59.754Z,2.10
2023-01-11T09:41:34.992Z,2.13
2023-01-11T09:42:39.631Z,1.70
2023-01-11T09:44:14.474Z,2.10
2023-01-11T09:45:22.200Z,1.70
2023-01-11T09:46:27.549Z,1.43
2023-01-11T09:47:32.288Z,1.90
2023-01-11T09:48:44.526Z,1.53
2023-01-11T09:49:54.505Z,2.33
2023-01-11T09:50:57.584Z,2.23
2023-01-11T09:52:23.998Z,2.20
2023-01-11T09:53:32.235Z,2.30
2023-01-11T09:54:34.321Z,1.90
2023-01-11T09:55:37.659Z,2.03
2023-01-11T09:56:47.370Z,2.23
2023-01-11T09:58:02.259Z,1.90
2023-01-11T09:59:20.202Z,2.17
2023-01-11T10:00:32.604Z,2.13
2023-01-11T10:01:50.776Z,2.00
2023-01-11T10:03:37.184Z,2.00
2023-01-11T10:05:18.708Z,2.00
2023-01-11T10:06:39.346Z,2.17
2023-01-11T10:18:30.182Z,1.90
2023-01-11T10:18:37.597Z,2.00
2023-01-11T10:18:39.058Z,2.00
2023-01-11T10:19:42.208Z,2.20
2023-01-11T10:20:50.484Z,2.00
2023-01-11T10:21:58.157Z,1.70
2023-01-11T10:23:11.554Z,1.90
2023-01-11T10:24:38.966Z,2.10
2023-01-11T10:25:51.438Z,2.03
2023-01-11T10:26:58.644Z,1.80
2023-01-11T10:28:07.487Z,2.03
2023-01-11T10:29:21.908Z,2.07
2023-01-11T10:31:00.374Z,1.97
2023-01-11T10:32:06.168Z,1.87
2023-01-11T10:33:32.619Z,1.80
2023-01-11T10:35:02.121Z,2.07
2023-01-11T10:36:21.364Z,1.80
2023-01-11T10:37:48.017Z,2.00
2023-01-11T10:39:31.909Z,2.10
2023-01-11T10:41:12.403Z,1.87
2023-01-11T10:42:23.368Z,1.70
2023-01-11T10:43:27.102Z,1.77
2023-01-11T10:44:37.779Z,1.77
2023-01-11T10:45:46.800Z,1.80
2023-01-11T10:46:53.591Z,1.80
2023-01-11T10:48:01.383Z,2.00
2023-01-11T10:49:15.946Z,1.80
2023-01-11T10:50:48.334Z,1.93
2023-01-11T10:51:50.560Z,1.60
2023-01-11T10:52:55.665Z,1.70
2023-01-11T10:54:23.218Z,1.83
2023-01-11T10:55:41.658Z,2.17
2023-01-11T10:57:09.029Z,1.90
2023-01-11T10:58:16.210Z,2.00
2023-01-11T10:59:50.932Z,1.87
2023-01-11T11:01:08.470Z,2.10
2023-01-11T11:02:35.780Z,1.90
2023-01-11T11:03:52.988Z,1.90
2023-01-11T11:05:15.227Z,1.80
2023-01-11T11:06:23.942Z,1.80
2023-01-11T11:07:36.465Z,2.00
2023-01-11T11:09:05.975Z,2.10
2023-01-11T11:10:22.000Z,1.70
2023-01-11T11:11:38.717Z,2.00
2023-01-11T11:13:06.800Z,1.90
2023-01-11T11:14:25.619Z,2.10
2023-01-11T11:15:37.315Z,2.20
2023-01-11T11:17:09.772Z,2.20
2023-01-11T11:18:11.576Z,1.70
2023-01-11T11:19:17.208Z,2.20
2023-01-11T11:20:31.080Z,1.93
2023-01-11T11:21:38.352Z,1.60
2023-01-11T11:22:40.547Z,1.67
2023-01-11T11:23:43.097Z,1.50
2023-01-11T11:24:55.259Z,1.80
2023-01-11T11:25:59.834Z,1.57
2023-01-11T11:27:19.599Z,2.07
2023-01-11T11:28:30.110Z,1.70
2023-01-11T11:29:31.620Z,1.60
2023-01-11T11:30:39.069Z,1.70
2023-01-11T11:31:46.984Z,1.80
2023-01-11T11:32:57.707Z,1.90
2023-01-11T11:34:06.917Z,1.90
2023-01-11T11:35:31.523Z,1.87
2023-01-11T11:36:44.039Z,1.80
2023-01-11T11:37:46.016Z,1.70
2023-01-11T11:39:10.863Z,1.63
2023-01-11T11:40:35.891Z,1.70
2023-01-11T11:41:51.446Z,2.00
2023-01-11T11:43:10.472Z,2.00
2023-01-11T11:44:21.334Z,3.20
2023-01-11T11:45:22.831Z,2.00
2023-01-11T11:46:28.169Z,2.20
2023-01-11T11:47:30.062Z,1.90
2023-01-11T11:48:33.991Z,2.20
2023-01-11T11:49:36.937Z,2.10
2023-01-11T11:50:46.058Z,1.90
2023-01-11T11:51:48.473Z,2.13
2023-01-11T11:53:00.742Z,2.03
2023-01-11T11:54:02.926Z,1.90
2023-01-11T11:55:07.718Z,2.27
2023-01-11T11:56:29.433Z,2.00
2023-01-11T11:57:38.624Z,2.07
2023-01-11T11:58:42.500Z,2.40
2023-01-11T11:59:50.483Z,2.10
2023-01-11T12:00:53.562Z,2.40
2023-01-11T12:02:02.749Z,2.63
2023-01-11T12:03:21.546Z,2.40
2023-01-11T12:04:47.343Z,2.37
2023-01-11T12:05:52.474Z,2.60
2023-01-11T12:07:23.689Z,2.40
2023-01-11T12:08:26.001Z,2.50
2023-01-11T12:09:31.265Z,2.60
2023-01-11T12:10:32.951Z,2.40
2023-01-11T12:11:37.887Z,2.27
2023-01-11T12:13:23.862Z,2.47
2023-01-11T12:14:30.833Z,2.67
2023-01-11T12:15:33.841Z,2.33
2023-01-11T12:16:39.478Z,2.63
2023-01-11T12:17:41.640Z,2.20
2023-01-11T12:18:43.685Z,2.40
2023-01-11T12:19:47.844Z,2.47
2023-01-11T12:20:49.671Z,2.40
2023-01-11T12:21:51.540Z,2.40
2023-01-11T12:23:12.895Z,2.20
2023-01-11T12:24:19.072Z,2.43
2023-01-11T12:25:22.042Z,2.10
2023-01-11T12:26:47.425Z,2.80
2023-01-11T12:28:13.891Z,2.10
2023-01-11T12:29:25.320Z,2.00
2023-01-11T12:31:17.880Z,2.00
2023-01-11T12:32:53.251Z,2.23
2023-01-11T12:34:16.938Z,2.20
2023-01-11T12:35:24.483Z,2.10
2023-01-11T12:36:26.106Z,2.20
2023-01-11T12:37:51.326Z,2.37
2023-01-11T12:39:30.404Z,2.30
2023-01-11T12:41:07.419Z,2.17
2023-01-11T12:42:12.896Z,2.30
2023-01-11T12:43:37.201Z,2.13
2023-01-11T12:45:20.248Z,2.30
2023-01-11T12:46:44.449Z,2.17
2023-01-11T12:48:07.497Z,2.00
2023-01-11T12:49:26.044Z,2.30
2023-01-11T12:52:01.630Z,2.27
2023-01-11T12:53:21.051Z,2.30
2023-01-11T12:54:23.918Z,2.40
2023-01-11T12:55:33.979Z,2.07
2023-01-11T12:56:54.492Z,1.97
2023-01-11T12:58:14.468Z,2.20
2023-01-11T12:59:37.405Z,2.17
2023-01-11T13:01:19.024Z,2.17
2023-01-11T13:03:03.358Z,1.90
2023-01-11T13:04:25.591Z,2.07
2023-01-11T13:05:43.896Z,2.10
2023-01-11T13:07:14.846Z,2.30
2023-01-11T13:08:35.230Z,2.20
2023-01-11T13:09:39.746Z,2.20
2023-01-11T13:10:53.040Z,2.20
2023-01-11T13:12:25.595Z,2.50
2023-01-11T13:13:45.694Z,2.37
2023-01-11T13:15:24.143Z,2.00
2023-01-11T13:16:40.528Z,2.60
2023-01-11T13:17:47.457Z,2.27
2023-01-11T13:19:01.447Z,2.70
2023-01-11T13:20:24.184Z,2.10
2023-01-11T13:21:53.257Z,2.10
2023-01-11T13:23:17.424Z,2.27
2023-01-11T13:24:26.464Z,2.23
2023-01-11T13:25:32.644Z,2.00
2023-01-11T13:26:38.305Z,1.90
2023-01-11T13:27:40.979Z,2.00
2023-01-11T13:28:48.028Z,2.03
2023-01-11T13:29:56.270Z,2.00
2023-01-11T13:30:59.656Z,2.00
2023-01-11T13:32:05.312Z,2.27
2023-01-11T13:33:12.900Z,2.50
2023-01-11T13:34:18.212Z,2.23
2023-01-11T13:35:28.115Z,2.30
2023-01-11T13:36:38.826Z,1.80
2023-01-11T13:38:08.553Z,1.93
2023-01-11T13:39:18.665Z,2.00
2023-01-11T13:40:31.461Z,1.70
2023-01-11T13:41:53.801Z,2.00
2023-01-11T13:43:06.118Z,1.93
2023-01-11T13:44:21.460Z,2.43
2023-01-11T13:45:29.012Z,1.90
2023-01-11T13:46:36.992Z,2.33
2023-01-11T13:47:45.200Z,2.30
2023-01-11T13:48:55.264Z,2.20
2023-01-11T13:50:18.113Z,2.27
2023-01-11T13:51:40.743Z,2.20
2023-01-11T13:53:27.613Z,2.00
2023-01-11T13:54:38.429Z,2.60
2023-01-11T13:55:39.838Z,2.23
2023-01-11T13:56:44.584Z,2.03
2023-01-11T13:57:52.323Z,2.07
2023-01-11T13:59:14.020Z,2.37
2023-01-11T14:00:24.283Z,2.20
2023-01-11T14:01:53.760Z,2.83
2023-01-11T14:03:03.612Z,2.13
2023-01-11T14:04:16.800Z,2.00
2023-01-11T14:05:21.512Z,2.00
2023-01-11T14:06:42.659Z,2.67
2023-01-11T14:07:50.310Z,2.27
2023-01-11T14:09:16.406Z,2.30
2023-01-11T14:10:41.201Z,2.50
2023-01-11T14:11:58.644Z,2.00
2023-01-11T14:13:45.745Z,2.30
2023-01-11T14:15:14.627Z,2.50
2023-01-11T14:16:42.322Z,2.33
2023-01-11T14:17:55.115Z,2.20
2023-01-11T14:19:28.151Z,2.33
2023-01-11T14:20:37.591Z,2.47
2023-01-11T14:22:09.427Z,2.50
2023-01-11T14:23:21.467Z,2.10
2023-01-11T14:24:25.750Z,2.50
2023-01-11T14:25:32.482Z,2.50
2023-01-11T14:26:59.264Z,2.30
2023-01-11T14:28:06.285Z,2.10
2023-01-11T14:29:19.443Z,2.63
2023-01-11T14:30:58.771Z,2.90
2023-01-11T14:32:29.443Z,3.90
2023-01-11T14:33:39.666Z,2.87
2023-01-11T14:34:53.013Z,2.93
2023-01-11T14:36:44.897Z,3.27
2023-01-11T14:38:01.826Z,4.10
2023-01-11T14:39:40.935Z,3.67
2023-01-11T14:41:14.874Z,4.03
2023-01-11T14:42:31.477Z,3.80
2023-01-11T14:43:54.033Z,4.20
2023-01-11T14:45:04.120Z,3.90
2023-01-11T14:46:33.682Z,3.90
2023-01-11T14:47:53.766Z,3.77
2023-01-11T14:49:14.052Z,3.60
2023-01-11T14:50:28.146Z,3.53
2023-01-11T14:51:48.377Z,4.23
2023-01-11T14:52:53.123Z,3.70
2023-01-11T14:54:13.469Z,3.70
2023-01-11T14:55:27.764Z,3.40
2023-01-11T14:56:36.652Z,3.70
2023-01-11T14:57:42.494Z,3.80
2023-01-11T14:59:06.500Z,4.10
2023-01-11T15:00:13.999Z,4.13
2023-01-11T15:01:15.588Z,3.83
2023-01-11T15:02:24.064Z,4.17
2023-01-11T15:03:51.849Z,3.87
2023-01-11T15:04:54.837Z,3.80
2023-01-11T15:06:03.103Z,4.60
2023-01-11T15:07:30.315Z,4.00
2023-01-11T15:08:47.549Z,4.00
2023-01-11T15:09:51.164Z,18.17
2023-01-11T15:10:59.401Z,13.23
2023-01-11T15:12:16.460Z,13.00
2023-01-11T15:13:32.565Z,5.10
2023-01-11T15:14:37.353Z,6.00
2023-01-11T15:15:57.962Z,4.70
2023-01-11T15:17:20.822Z,4.53
2023-01-11T15:18:25.388Z,4.57
2023-01-11T15:19:33.977Z,4.87
2023-01-11T15:20:49.535Z,14.57
2023-01-11T15:21:55.830Z,6.20
2023-01-11T15:23:00.712Z,5.17